KFBL

Details ICAO KFBL
Name FARIBAULT MUNI
Region United States
Timezone America/Chicago (UTC-6.0)
Plans Departing 3
Arriving 5
Stats Elevation 1,060 ft / 323 m (AMSL)
Location 44.327318° -93.310152°
Runways 2
Magnetic Variation 0.317° E
Sunrise 2017-12-11 13:40:41 UTC / 2017-12-11 07:40:41 Local
Sunset 2017-12-11 22:35:27 UTC / 2017-12-11 16:35:27 Local
Advertisement - Login to hide

Runways

ID Width Length Bearing (true) Bearing (mag) Surface Threshold Offset Overrun Length
02 140 ft / 43 m 2,010 ft / 613 m 21.14° 20.82° Grass 0 ft / 0 m 0 ft / 0 m
12 72 ft / 22 m 4,249 ft / 1,295 m 127.19° 126.87° Asphalt 0 ft / 0 m 0 ft / 0 m
20 140 ft / 43 m 2,010 ft / 613 m 201.15° 200.83° Grass 0 ft / 0 m 0 ft / 0 m
30 72 ft / 22 m 4,249 ft / 1,295 m 307.20° 306.88° Asphalt 237 ft / 72 m 0 ft / 0 m

Map

Weather


0- 5 10 15 20 25 30 35+ Temperature / ° C

Clouds and Precipitation
Forecast for 2017-12-11 12:00 UTC. Updated 38 minutes ago

Ground ~20,000 ft ~40,000 ft Winds

METAR

KFBL 111135Z AUTO 17004KT 10SM OVC050 M01/M03 A2975 RMK AO2

TAF

Not found

Frequencies

Unicom 122.80 MHz CTAF/UNICOM
Approach 125.00 MHz MINNEAPOLIS APP/DEP
Warning: Do not use this data for real-world aviation or navigation. No guarantee of current accuracy is given.